sensor_id;sensor_type;location;lat;lon;timestamp;P1;durP1;ratioP1;P2;durP2;ratioP2
1048;SDS011;513;51.444;7.196;2022-12-08T00:01:23;40.70;;;23.37;;
1048;SDS011;513;51.444;7.196;2022-12-08T00:03:51;43.80;;;23.63;;
1048;SDS011;513;51.444;7.196;2022-12-08T00:06:21;37.43;;;21.60;;
1048;SDS011;513;51.444;7.196;2022-12-08T00:09:12;39.07;;;23.27;;
1048;SDS011;513;51.444;7.196;2022-12-08T00:11:53;44.83;;;25.00;;
1048;SDS011;513;51.444;7.196;2022-12-08T00:14:22;43.73;;;25.23;;
1048;SDS011;513;51.444;7.196;2022-12-08T00:16:50;44.10;;;25.47;;
1048;SDS011;513;51.444;7.196;2022-12-08T00:19:17;42.17;;;25.20;;
1048;SDS011;513;51.444;7.196;2022-12-08T00:21:44;43.57;;;23.97;;
1048;SDS011;513;51.444;7.196;2022-12-08T00:24:12;44.70;;;26.10;;
1048;SDS011;513;51.444;7.196;2022-12-08T00:26:38;46.40;;;26.77;;
1048;SDS011;513;51.444;7.196;2022-12-08T00:29:05;43.10;;;24.00;;
1048;SDS011;513;51.444;7.196;2022-12-08T00:31:32;40.63;;;25.10;;
1048;SDS011;513;51.444;7.196;2022-12-08T00:33:59;42.27;;;24.80;;
1048;SDS011;513;51.444;7.196;2022-12-08T00:36:26;43.67;;;26.47;;
1048;SDS011;513;51.444;7.196;2022-12-08T00:38:53;50.53;;;27.30;;
1048;SDS011;513;51.444;7.196;2022-12-08T00:41:22;45.70;;;26.30;;
1048;SDS011;513;51.444;7.196;2022-12-08T00:44:03;44.83;;;25.17;;
1048;SDS011;513;51.444;7.196;2022-12-08T00:46:30;40.27;;;24.73;;
1048;SDS011;513;51.444;7.196;2022-12-08T00:48:57;39.80;;;24.87;;
1048;SDS011;513;51.444;7.196;2022-12-08T00:51:24;38.57;;;24.70;;
1048;SDS011;513;51.444;7.196;2022-12-08T00:53:50;43.80;;;26.37;;
1048;SDS011;513;51.444;7.196;2022-12-08T00:56:17;41.73;;;26.23;;
1048;SDS011;513;51.444;7.196;2022-12-08T00:58:45;40.50;;;24.97;;
1048;SDS011;513;51.444;7.196;2022-12-08T01:01:12;40.30;;;24.10;;
1048;SDS011;513;51.444;7.196;2022-12-08T01:03:39;39.73;;;25.70;;
1048;SDS011;513;51.444;7.196;2022-12-08T01:06:07;38.33;;;24.00;;
1048;SDS011;513;51.444;7.196;2022-12-08T01:08:35;43.70;;;24.73;;
1048;SDS011;513;51.444;7.196;2022-12-08T01:11:02;37.10;;;23.80;;
1048;SDS011;513;51.444;7.196;2022-12-08T01:13:29;39.57;;;22.37;;
1048;SDS011;513;51.444;7.196;2022-12-08T01:15:58;34.87;;;22.33;;
1048;SDS011;513;51.444;7.196;2022-12-08T01:18:25;36.40;;;21.87;;
1048;SDS011;513;51.444;7.196;2022-12-08T01:20:52;33.70;;;21.97;;
1048;SDS011;513;51.444;7.196;2022-12-08T01:23:19;32.17;;;20.30;;
1048;SDS011;513;51.444;7.196;2022-12-08T01:25:46;38.30;;;23.10;;
1048;SDS011;513;51.444;7.196;2022-12-08T01:28:13;41.07;;;23.07;;
1048;SDS011;513;51.444;7.196;2022-12-08T01:30:39;38.57;;;23.37;;
1048;SDS011;513;51.444;7.196;2022-12-08T01:33:07;37.97;;;23.13;;
1048;SDS011;513;51.444;7.196;2022-12-08T01:35:34;38.07;;;20.57;;
1048;SDS011;513;51.444;7.196;2022-12-08T01:38:01;41.43;;;23.47;;
1048;SDS011;513;51.444;7.196;2022-12-08T01:40:27;37.40;;;24.10;;
1048;SDS011;513;51.444;7.196;2022-12-08T01:42:54;35.63;;;21.50;;
1048;SDS011;513;51.444;7.196;2022-12-08T01:45:21;36.33;;;22.07;;
1048;SDS011;513;51.444;7.196;2022-12-08T01:47:51;32.97;;;21.67;;
1048;SDS011;513;51.444;7.196;2022-12-08T01:50:23;38.03;;;22.93;;
1048;SDS011;513;51.444;7.196;2022-12-08T01:52:51;35.67;;;22.77;;
1048;SDS011;513;51.444;7.196;2022-12-08T01:55:21;36.80;;;22.43;;
1048;SDS011;513;51.444;7.196;2022-12-08T01:57:51;37.77;;;22.20;;
1048;SDS011;513;51.444;7.196;2022-12-08T02:00:22;40.17;;;23.60;;
1048;SDS011;513;51.444;7.196;2022-12-08T02:02:51;35.50;;;22.23;;
1048;SDS011;513;51.444;7.196;2022-12-08T02:05:20;39.07;;;23.13;;
1048;SDS011;513;51.444;7.196;2022-12-08T02:07:50;36.50;;;22.60;;
1048;SDS011;513;51.444;7.196;2022-12-08T02:10:18;39.53;;;24.40;;
1048;SDS011;513;51.444;7.196;2022-12-08T02:12:46;41.70;;;23.47;;
1048;SDS011;513;51.444;7.196;2022-12-08T02:15:15;45.87;;;23.00;;
1048;SDS011;513;51.444;7.196;2022-12-08T02:17:47;39.97;;;22.10;;
1048;SDS011;513;51.444;7.196;2022-12-08T02:20:29;40.73;;;23.07;;
1048;SDS011;513;51.444;7.196;2022-12-08T02:23:05;41.00;;;22.87;;
1048;SDS011;513;51.444;7.196;2022-12-08T02:25:44;38.97;;;24.60;;
1048;SDS011;513;51.444;7.196;2022-12-08T02:28:32;42.17;;;22.03;;
1048;SDS011;513;51.444;7.196;2022-12-08T02:31:16;45.03;;;22.63;;
1048;SDS011;513;51.444;7.196;2022-12-08T02:34:03;38.13;;;21.50;;
1048;SDS011;513;51.444;7.196;2022-12-08T02:36:42;43.93;;;24.83;;
1048;SDS011;513;51.444;7.196;2022-12-08T02:39:17;45.93;;;24.33;;
1048;SDS011;513;51.444;7.196;2022-12-08T02:41:52;39.33;;;21.57;;
1048;SDS011;513;51.444;7.196;2022-12-08T02:44:26;41.90;;;24.37;;
1048;SDS011;513;51.444;7.196;2022-12-08T02:46:57;39.70;;;22.70;;
1048;SDS011;513;51.444;7.196;2022-12-08T02:49:29;42.43;;;23.80;;
1048;SDS011;513;51.444;7.196;2022-12-08T02:52:05;40.23;;;21.47;;
1048;SDS011;513;51.444;7.196;2022-12-08T02:54:33;38.43;;;22.53;;
1048;SDS011;513;51.444;7.196;2022-12-08T02:57:07;36.70;;;20.67;;
1048;SDS011;513;51.444;7.196;2022-12-08T02:59:47;33.93;;;19.80;;
1048;SDS011;513;51.444;7.196;2022-12-08T03:02:31;39.57;;;20.80;;
1048;SDS011;513;51.444;7.196;2022-12-08T03:05:10;39.13;;;21.83;;
1048;SDS011;513;51.444;7.196;2022-12-08T03:07:48;42.53;;;22.50;;
1048;SDS011;513;51.444;7.196;2022-12-08T03:10:22;35.43;;;20.67;;
1048;SDS011;513;51.444;7.196;2022-12-08T03:12:55;42.67;;;22.03;;
1048;SDS011;513;51.444;7.196;2022-12-08T03:15:25;40.20;;;20.90;;
1048;SDS011;513;51.444;7.196;2022-12-08T03:17:55;38.43;;;19.10;;
1048;SDS011;513;51.444;7.196;2022-12-08T03:20:25;35.60;;;19.60;;
1048;SDS011;513;51.444;7.196;2022-12-08T03:22:54;42.83;;;20.53;;
1048;SDS011;513;51.444;7.196;2022-12-08T03:25:27;36.67;;;20.47;;
1048;SDS011;513;51.444;7.196;2022-12-08T03:27:56;42.67;;;22.20;;
1048;SDS011;513;51.444;7.196;2022-12-08T03:30:25;43.30;;;20.53;;
1048;SDS011;513;51.444;7.196;2022-12-08T03:32:53;40.03;;;21.43;;
1048;SDS011;513;51.444;7.196;2022-12-08T03:35:28;39.70;;;21.80;;
1048;SDS011;513;51.444;7.196;2022-12-08T03:38:00;38.07;;;21.50;;
1048;SDS011;513;51.444;7.196;2022-12-08T03:40:27;36.50;;;19.63;;
1048;SDS011;513;51.444;7.196;2022-12-08T03:42:54;36.83;;;19.13;;
1048;SDS011;513;51.444;7.196;2022-12-08T03:45:21;32.53;;;18.90;;
1048;SDS011;513;51.444;7.196;2022-12-08T03:47:47;38.63;;;18.97;;
1048;SDS011;513;51.444;7.196;2022-12-08T03:50:14;40.57;;;21.53;;
1048;SDS011;513;51.444;7.196;2022-12-08T03:52:42;34.90;;;19.77;;
1048;SDS011;513;51.444;7.196;2022-12-08T03:55:09;43.30;;;19.83;;
1048;SDS011;513;51.444;7.196;2022-12-08T03:57:36;34.10;;;18.20;;
1048;SDS011;513;51.444;7.196;2022-12-08T04:00:02;33.23;;;18.50;;
1048;SDS011;513;51.444;7.196;2022-12-08T04:02:30;36.03;;;20.03;;
1048;SDS011;513;51.444;7.196;2022-12-08T04:04:57;34.27;;;18.20;;
1048;SDS011;513;51.444;7.196;2022-12-08T04:07:24;34.63;;;18.23;;
1048;SDS011;513;51.444;7.196;2022-12-08T04:09:52;30.33;;;17.33;;
1048;SDS011;513;51.444;7.196;2022-12-08T04:12:18;31.33;;;17.33;;
1048;SDS011;513;51.444;7.196;2022-12-08T04:14:45;32.40;;;17.07;;
1048;SDS011;513;51.444;7.196;2022-12-08T04:17:12;32.27;;;17.57;;
1048;SDS011;513;51.444;7.196;2022-12-08T04:19:38;24.37;;;12.07;;
1048;SDS011;513;51.444;7.196;2022-12-08T04:22:05;29.00;;;15.83;;
1048;SDS011;513;51.444;7.196;2022-12-08T04:24:32;31.57;;;16.97;;
1048;SDS011;513;51.444;7.196;2022-12-08T04:27:00;28.83;;;17.87;;
1048;SDS011;513;51.444;7.196;2022-12-08T04:29:27;35.00;;;17.27;;
1048;SDS011;513;51.444;7.196;2022-12-08T04:31:54;30.07;;;17.93;;
1048;SDS011;513;51.444;7.196;2022-12-08T04:34:20;33.60;;;16.80;;
1048;SDS011;513;51.444;7.196;2022-12-08T04:36:47;31.27;;;16.00;;
1048;SDS011;513;51.444;7.196;2022-12-08T04:39:15;25.20;;;13.83;;
1048;SDS011;513;51.444;7.196;2022-12-08T04:41:42;32.07;;;16.17;;
1048;SDS011;513;51.444;7.196;2022-12-08T04:44:09;29.73;;;15.83;;
1048;SDS011;513;51.444;7.196;2022-12-08T04:46:36;26.70;;;14.63;;
1048;SDS011;513;51.444;7.196;2022-12-08T04:49:03;27.70;;;15.43;;
1048;SDS011;513;51.444;7.196;2022-12-08T04:51:29;25.30;;;13.13;;
1048;SDS011;513;51.444;7.196;2022-12-08T04:53:56;23.87;;;13.47;;
1048;SDS011;513;51.444;7.196;2022-12-08T04:56:23;25.60;;;14.07;;
1048;SDS011;513;51.444;7.196;2022-12-08T04:58:49;25.40;;;14.50;;
1048;SDS011;513;51.444;7.196;2022-12-08T05:01:18;22.00;;;13.23;;
1048;SDS011;513;51.444;7.196;2022-12-08T05:03:44;24.77;;;14.10;;
1048;SDS011;513;51.444;7.196;2022-12-08T05:06:12;28.27;;;14.83;;
1048;SDS011;513;51.444;7.196;2022-12-08T05:08:39;23.53;;;12.93;;
1048;SDS011;513;51.444;7.196;2022-12-08T05:11:06;23.17;;;13.17;;
1048;SDS011;513;51.444;7.196;2022-12-08T05:13:35;25.23;;;14.27;;
1048;SDS011;513;51.444;7.196;2022-12-08T05:16:03;21.60;;;13.17;;
1048;SDS011;513;51.444;7.196;2022-12-08T05:18:32;22.73;;;12.73;;
1048;SDS011;513;51.444;7.196;2022-12-08T05:20:59;25.77;;;14.20;;
1048;SDS011;513;51.444;7.196;2022-12-08T05:23:26;24.60;;;13.90;;
1048;SDS011;513;51.444;7.196;2022-12-08T05:25:53;23.27;;;13.40;;
1048;SDS011;513;51.444;7.196;2022-12-08T05:28:19;25.67;;;14.13;;
1048;SDS011;513;51.444;7.196;2022-12-08T05:30:47;23.77;;;14.17;;
1048;SDS011;513;51.444;7.196;2022-12-08T05:33:13;24.80;;;14.90;;
1048;SDS011;513;51.444;7.196;2022-12-08T05:35:41;27.27;;;14.40;;
1048;SDS011;513;51.444;7.196;2022-12-08T05:38:08;25.77;;;14.37;;
1048;SDS011;513;51.444;7.196;2022-12-08T05:40:36;27.40;;;13.90;;
1048;SDS011;513;51.444;7.196;2022-12-08T05:43:02;29.07;;;14.47;;
1048;SDS011;513;51.444;7.196;2022-12-08T05:45:29;23.63;;;14.03;;
1048;SDS011;513;51.444;7.196;2022-12-08T05:47:56;25.30;;;13.77;;
1048;SDS011;513;51.444;7.196;2022-12-08T05:50:23;24.50;;;14.17;;
1048;SDS011;513;51.444;7.196;2022-12-08T05:52:51;20.17;;;11.63;;
1048;SDS011;513;51.444;7.196;2022-12-08T05:55:17;25.60;;;13.93;;
1048;SDS011;513;51.444;7.196;2022-12-08T05:57:44;26.33;;;14.80;;
1048;SDS011;513;51.444;7.196;2022-12-08T06:00:11;38.73;;;21.60;;
1048;SDS011;513;51.444;7.196;2022-12-08T06:02:39;20.50;;;12.40;;
1048;SDS011;513;51.444;7.196;2022-12-08T06:05:06;25.67;;;14.60;;
1048;SDS011;513;51.444;7.196;2022-12-08T06:07:33;25.27;;;14.97;;
1048;SDS011;513;51.444;7.196;2022-12-08T06:10:01;24.27;;;13.57;;
1048;SDS011;513;51.444;7.196;2022-12-08T06:12:29;27.07;;;15.07;;
1048;SDS011;513;51.444;7.196;2022-12-08T06:14:55;24.70;;;14.20;;
1048;SDS011;513;51.444;7.196;2022-12-08T06:17:22;27.37;;;15.40;;
1048;SDS011;513;51.444;7.196;2022-12-08T06:19:49;25.00;;;15.83;;
1048;SDS011;513;51.444;7.196;2022-12-08T06:22:15;26.83;;;16.20;;
1048;SDS011;513;51.444;7.196;2022-12-08T06:24:42;23.70;;;13.80;;
1048;SDS011;513;51.444;7.196;2022-12-08T06:27:10;25.97;;;14.60;;
1048;SDS011;513;51.444;7.196;2022-12-08T06:29:36;28.40;;;15.47;;
1048;SDS011;513;51.444;7.196;2022-12-08T06:32:03;26.67;;;14.67;;
1048;SDS011;513;51.444;7.196;2022-12-08T06:34:30;27.80;;;15.80;;
1048;SDS011;513;51.444;7.196;2022-12-08T06:36:57;24.53;;;14.43;;
1048;SDS011;513;51.444;7.196;2022-12-08T06:39:23;26.20;;;14.53;;
1048;SDS011;513;51.444;7.196;2022-12-08T06:41:50;24.17;;;14.27;;
1048;SDS011;513;51.444;7.196;2022-12-08T06:44:37;24.03;;;13.83;;
1048;SDS011;513;51.444;7.196;2022-12-08T06:47:04;23.97;;;13.70;;
1048;SDS011;513;51.444;7.196;2022-12-08T06:49:31;25.23;;;13.60;;
1048;SDS011;513;51.444;7.196;2022-12-08T06:51:57;26.37;;;14.70;;
1048;SDS011;513;51.444;7.196;2022-12-08T06:54:24;25.27;;;15.03;;
1048;SDS011;513;51.444;7.196;2022-12-08T06:56:51;27.67;;;15.13;;
1048;SDS011;513;51.444;7.196;2022-12-08T06:59:18;25.90;;;14.33;;
1048;SDS011;513;51.444;7.196;2022-12-08T07:01:46;25.20;;;14.53;;
1048;SDS011;513;51.444;7.196;2022-12-08T07:04:12;27.33;;;15.07;;
1048;SDS011;513;51.444;7.196;2022-12-08T07:06:39;24.40;;;13.90;;
1048;SDS011;513;51.444;7.196;2022-12-08T07:09:06;23.67;;;12.80;;
1048;SDS011;513;51.444;7.196;2022-12-08T07:11:33;22.70;;;12.93;;
1048;SDS011;513;51.444;7.196;2022-12-08T07:14:00;26.23;;;13.53;;
1048;SDS011;513;51.444;7.196;2022-12-08T07:16:26;23.70;;;12.10;;
1048;SDS011;513;51.444;7.196;2022-12-08T07:18:54;22.77;;;12.67;;
1048;SDS011;513;51.444;7.196;2022-12-08T07:21:21;19.97;;;11.90;;
1048;SDS011;513;51.444;7.196;2022-12-08T07:23:48;21.73;;;11.47;;
1048;SDS011;513;51.444;7.196;2022-12-08T07:26:15;24.63;;;13.30;;
1048;SDS011;513;51.444;7.196;2022-12-08T07:28:42;26.13;;;13.60;;
1048;SDS011;513;51.444;7.196;2022-12-08T07:31:15;24.23;;;13.00;;
1048;SDS011;513;51.444;7.196;2022-12-08T07:33:42;24.90;;;12.47;;
1048;SDS011;513;51.444;7.196;2022-12-08T07:36:11;24.17;;;12.87;;
1048;SDS011;513;51.444;7.196;2022-12-08T07:38:38;29.57;;;13.53;;
1048;SDS011;513;51.444;7.196;2022-12-08T07:41:10;22.77;;;13.20;;
1048;SDS011;513;51.444;7.196;2022-12-08T07:43:38;25.80;;;14.43;;
1048;SDS011;513;51.444;7.196;2022-12-08T07:46:05;24.60;;;13.60;;
1048;SDS011;513;51.444;7.196;2022-12-08T07:48:31;22.93;;;12.97;;
1048;SDS011;513;51.444;7.196;2022-12-08T07:50:59;25.17;;;14.27;;
1048;SDS011;513;51.444;7.196;2022-12-08T07:53:28;24.30;;;13.30;;
1048;SDS011;513;51.444;7.196;2022-12-08T07:55:54;23.27;;;13.27;;
1048;SDS011;513;51.444;7.196;2022-12-08T07:58:21;22.97;;;13.50;;
1048;SDS011;513;51.444;7.196;2022-12-08T08:00:48;25.53;;;13.37;;
1048;SDS011;513;51.444;7.196;2022-12-08T08:03:15;24.83;;;13.87;;
1048;SDS011;513;51.444;7.196;2022-12-08T08:05:41;22.17;;;11.43;;
1048;SDS011;513;51.444;7.196;2022-12-08T08:08:08;22.60;;;12.87;;
1048;SDS011;513;51.444;7.196;2022-12-08T08:10:36;26.27;;;12.23;;
1048;SDS011;513;51.444;7.196;2022-12-08T08:13:03;24.27;;;12.03;;
1048;SDS011;513;51.444;7.196;2022-12-08T08:15:30;22.03;;;12.03;;
1048;SDS011;513;51.444;7.196;2022-12-08T08:17:56;19.80;;;12.23;;
1048;SDS011;513;51.444;7.196;2022-12-08T08:20:23;22.17;;;14.10;;
1048;SDS011;513;51.444;7.196;2022-12-08T08:22:50;22.20;;;13.13;;
1048;SDS011;513;51.444;7.196;2022-12-08T08:25:17;22.17;;;13.10;;
1048;SDS011;513;51.444;7.196;2022-12-08T08:27:48;23.27;;;14.67;;
1048;SDS011;513;51.444;7.196;2022-12-08T08:30:15;25.00;;;15.47;;
1048;SDS011;513;51.444;7.196;2022-12-08T08:32:42;25.50;;;15.47;;
1048;SDS011;513;51.444;7.196;2022-12-08T08:35:09;25.37;;;15.37;;
1048;SDS011;513;51.444;7.196;2022-12-08T08:37:36;20.67;;;12.83;;
1048;SDS011;513;51.444;7.196;2022-12-08T08:40:02;27.70;;;16.20;;
1048;SDS011;513;51.444;7.196;2022-12-08T08:42:30;25.07;;;14.53;;
1048;SDS011;513;51.444;7.196;2022-12-08T08:44:58;22.70;;;14.77;;
1048;SDS011;513;51.444;7.196;2022-12-08T08:47:24;21.43;;;13.63;;
1048;SDS011;513;51.444;7.196;2022-12-08T08:49:51;28.37;;;16.10;;
1048;SDS011;513;51.444;7.196;2022-12-08T08:52:18;24.90;;;15.10;;
1048;SDS011;513;51.444;7.196;2022-12-08T08:54:44;22.50;;;13.33;;
1048;SDS011;513;51.444;7.196;2022-12-08T08:57:11;23.17;;;14.47;;
1048;SDS011;513;51.444;7.196;2022-12-08T08:59:38;23.57;;;15.40;;
1048;SDS011;513;51.444;7.196;2022-12-08T09:02:08;26.00;;;15.50;;
1048;SDS011;513;51.444;7.196;2022-12-08T09:04:40;24.70;;;14.20;;
1048;SDS011;513;51.444;7.196;2022-12-08T09:07:07;21.63;;;13.70;;
1048;SDS011;513;51.444;7.196;2022-12-08T09:09:33;25.13;;;15.03;;
1048;SDS011;513;51.444;7.196;2022-12-08T09:12:00;22.67;;;13.60;;
1048;SDS011;513;51.444;7.196;2022-12-08T09:14:27;20.47;;;11.80;;
1048;SDS011;513;51.444;7.196;2022-12-08T09:16:53;19.87;;;12.37;;
1048;SDS011;513;51.444;7.196;2022-12-08T09:19:21;22.97;;;14.13;;
1048;SDS011;513;51.444;7.196;2022-12-08T09:21:48;22.30;;;12.67;;
1048;SDS011;513;51.444;7.196;2022-12-08T09:24:15;23.30;;;13.67;;
1048;SDS011;513;51.444;7.196;2022-12-08T09:26:42;19.60;;;12.20;;
1048;SDS011;513;51.444;7.196;2022-12-08T09:29:09;20.53;;;12.37;;
1048;SDS011;513;51.444;7.196;2022-12-08T09:31:37;20.27;;;11.30;;
1048;SDS011;513;51.444;7.196;2022-12-08T09:34:04;18.83;;;11.13;;
1048;SDS011;513;51.444;7.196;2022-12-08T09:36:32;22.80;;;15.50;;
1048;SDS011;513;51.444;7.196;2022-12-08T09:38:59;21.27;;;13.17;;
1048;SDS011;513;51.444;7.196;2022-12-08T09:41:28;26.07;;;12.77;;
1048;SDS011;513;51.444;7.196;2022-12-08T09:43:59;22.20;;;13.33;;
1048;SDS011;513;51.444;7.196;2022-12-08T09:46:32;21.90;;;13.70;;
1048;SDS011;513;51.444;7.196;2022-12-08T09:48:59;21.07;;;11.93;;
1048;SDS011;513;51.444;7.196;2022-12-08T09:51:28;22.57;;;13.00;;
1048;SDS011;513;51.444;7.196;2022-12-08T09:54:01;23.97;;;13.90;;
1048;SDS011;513;51.444;7.196;2022-12-08T09:56:32;21.57;;;13.33;;
1048;SDS011;513;51.444;7.196;2022-12-08T09:59:02;23.60;;;13.57;;
1048;SDS011;513;51.444;7.196;2022-12-08T10:01:37;25.63;;;14.33;;
1048;SDS011;513;51.444;7.196;2022-12-08T10:04:07;23.33;;;13.90;;
1048;SDS011;513;51.444;7.196;2022-12-08T10:06:43;27.73;;;14.53;;
1048;SDS011;513;51.444;7.196;2022-12-08T10:09:27;27.23;;;14.07;;
1048;SDS011;513;51.444;7.196;2022-12-08T10:12:02;25.83;;;14.73;;
1048;SDS011;513;51.444;7.196;2022-12-08T10:14:35;26.13;;;14.90;;
1048;SDS011;513;51.444;7.196;2022-12-08T10:17:08;29.30;;;15.53;;
1048;SDS011;513;51.444;7.196;2022-12-08T10:19:41;27.97;;;14.17;;
1048;SDS011;513;51.444;7.196;2022-12-08T10:22:11;25.93;;;14.83;;
1048;SDS011;513;51.444;7.196;2022-12-08T10:24:47;29.10;;;14.63;;
1048;SDS011;513;51.444;7.196;2022-12-08T10:27:19;29.50;;;15.43;;
1048;SDS011;513;51.444;7.196;2022-12-08T10:29:46;27.00;;;14.60;;
1048;SDS011;513;51.444;7.196;2022-12-08T10:32:13;29.37;;;15.87;;
1048;SDS011;513;51.444;7.196;2022-12-08T10:35:04;28.67;;;16.37;;
1048;SDS011;513;51.444;7.196;2022-12-08T10:37:32;29.70;;;16.00;;
1048;SDS011;513;51.444;7.196;2022-12-08T10:40:01;30.53;;;16.43;;
1048;SDS011;513;51.444;7.196;2022-12-08T10:42:33;28.40;;;15.23;;
1048;SDS011;513;51.444;7.196;2022-12-08T10:45:12;26.20;;;14.73;;
1048;SDS011;513;51.444;7.196;2022-12-08T10:47:48;24.50;;;14.77;;
1048;SDS011;513;51.444;7.196;2022-12-08T10:50:22;19.67;;;11.60;;
1048;SDS011;513;51.444;7.196;2022-12-08T10:52:56;25.73;;;14.77;;
1048;SDS011;513;51.444;7.196;2022-12-08T10:55:25;26.13;;;14.20;;
1048;SDS011;513;51.444;7.196;2022-12-08T10:57:52;28.80;;;15.37;;
1048;SDS011;513;51.444;7.196;2022-12-08T11:00:19;25.30;;;13.93;;
1048;SDS011;513;51.444;7.196;2022-12-08T11:02:49;29.57;;;16.53;;
1048;SDS011;513;51.444;7.196;2022-12-08T11:05:19;27.53;;;15.63;;
1048;SDS011;513;51.444;7.196;2022-12-08T11:07:48;25.70;;;13.13;;
1048;SDS011;513;51.444;7.196;2022-12-08T11:10:18;25.67;;;13.77;;
1048;SDS011;513;51.444;7.196;2022-12-08T11:12:47;25.53;;;14.57;;
1048;SDS011;513;51.444;7.196;2022-12-08T11:15:15;21.40;;;12.43;;
1048;SDS011;513;51.444;7.196;2022-12-08T11:17:43;22.13;;;14.27;;
1048;SDS011;513;51.444;7.196;2022-12-08T11:20:20;25.57;;;14.03;;
1048;SDS011;513;51.444;7.196;2022-12-08T11:22:51;25.17;;;14.00;;
1048;SDS011;513;51.444;7.196;2022-12-08T11:25:20;24.50;;;13.93;;
1048;SDS011;513;51.444;7.196;2022-12-08T11:27:50;20.33;;;12.47;;
1048;SDS011;513;51.444;7.196;2022-12-08T11:30:19;25.27;;;15.07;;
1048;SDS011;513;51.444;7.196;2022-12-08T11:32:47;25.40;;;15.97;;
1048;SDS011;513;51.444;7.196;2022-12-08T11:35:23;26.00;;;15.23;;
1048;SDS011;513;51.444;7.196;2022-12-08T11:37:54;31.80;;;17.37;;
1048;SDS011;513;51.444;7.196;2022-12-08T11:40:24;26.30;;;15.53;;
1048;SDS011;513;51.444;7.196;2022-12-08T11:42:57;30.03;;;16.47;;
1048;SDS011;513;51.444;7.196;2022-12-08T11:45:31;31.00;;;19.07;;
1048;SDS011;513;51.444;7.196;2022-12-08T11:48:03;33.63;;;19.03;;
1048;SDS011;513;51.444;7.196;2022-12-08T11:50:38;31.43;;;18.47;;
1048;SDS011;513;51.444;7.196;2022-12-08T11:53:12;33.77;;;20.03;;
1048;SDS011;513;51.444;7.196;2022-12-08T11:55:44;36.80;;;19.60;;
1048;SDS011;513;51.444;7.196;2022-12-08T11:58:17;38.70;;;20.70;;
1048;SDS011;513;51.444;7.196;2022-12-08T12:00:46;36.83;;;20.40;;
1048;SDS011;513;51.444;7.196;2022-12-08T12:03:16;32.57;;;19.67;;
1048;SDS011;513;51.444;7.196;2022-12-08T12:05:54;37.00;;;20.03;;
1048;SDS011;513;51.444;7.196;2022-12-08T12:08:34;38.00;;;20.23;;
1048;SDS011;513;51.444;7.196;2022-12-08T12:11:12;36.37;;;20.70;;
1048;SDS011;513;51.444;7.196;2022-12-08T12:14:04;36.60;;;17.70;;
1048;SDS011;513;51.444;7.196;2022-12-08T12:16:51;32.23;;;18.03;;
1048;SDS011;513;51.444;7.196;2022-12-08T12:19:25;31.87;;;17.97;;
1048;SDS011;513;51.444;7.196;2022-12-08T12:21:55;32.57;;;17.13;;
1048;SDS011;513;51.444;7.196;2022-12-08T12:24:23;32.37;;;17.80;;
1048;SDS011;513;51.444;7.196;2022-12-08T12:26:53;31.03;;;17.77;;
1048;SDS011;513;51.444;7.196;2022-12-08T12:29:24;28.27;;;16.60;;
1048;SDS011;513;51.444;7.196;2022-12-08T12:31:54;29.13;;;17.43;;
1048;SDS011;513;51.444;7.196;2022-12-08T12:34:24;29.07;;;16.47;;
1048;SDS011;513;51.444;7.196;2022-12-08T12:36:54;26.37;;;16.63;;
1048;SDS011;513;51.444;7.196;2022-12-08T12:39:23;28.57;;;15.07;;
1048;SDS011;513;51.444;7.196;2022-12-08T12:41:54;28.97;;;18.03;;
1048;SDS011;513;51.444;7.196;2022-12-08T12:47:12;31.83;;;17.33;;
1048;SDS011;513;51.444;7.196;2022-12-08T12:52:46;26.83;;;16.13;;
1048;SDS011;513;51.444;7.196;2022-12-08T12:58:21;27.17;;;16.50;;
1048;SDS011;513;51.444;7.196;2022-12-08T13:04:13;25.90;;;16.17;;
1048;SDS011;513;51.444;7.196;2022-12-08T13:06:41;23.00;;;14.73;;
1048;SDS011;513;51.444;7.196;2022-12-08T13:09:17;21.50;;;14.17;;
1048;SDS011;513;51.444;7.196;2022-12-08T13:11:52;24.37;;;14.70;;
1048;SDS011;513;51.444;7.196;2022-12-08T13:14:28;22.77;;;14.23;;
1048;SDS011;513;51.444;7.196;2022-12-08T13:16:58;24.87;;;15.03;;
1048;SDS011;513;51.444;7.196;2022-12-08T13:19:28;24.67;;;13.73;;
1048;SDS011;513;51.444;7.196;2022-12-08T13:21:57;19.53;;;11.40;;
1048;SDS011;513;51.444;7.196;2022-12-08T13:24:28;21.93;;;13.13;;
1048;SDS011;513;51.444;7.196;2022-12-08T13:33:09;21.30;;;12.87;;
1048;SDS011;513;51.444;7.196;2022-12-08T13:35:38;19.20;;;12.87;;
1048;SDS011;513;51.444;7.196;2022-12-08T13:38:11;21.00;;;13.83;;
1048;SDS011;513;51.444;7.196;2022-12-08T13:40:42;24.57;;;14.67;;
1048;SDS011;513;51.444;7.196;2022-12-08T13:43:13;24.60;;;16.03;;
1048;SDS011;513;51.444;7.196;2022-12-08T13:45:44;24.50;;;14.80;;
1048;SDS011;513;51.444;7.196;2022-12-08T13:48:14;25.27;;;16.23;;
1048;SDS011;513;51.444;7.196;2022-12-08T13:50:49;28.10;;;14.63;;
1048;SDS011;513;51.444;7.196;2022-12-08T13:53:19;24.30;;;15.77;;
1048;SDS011;513;51.444;7.196;2022-12-08T13:55:48;24.73;;;15.90;;
1048;SDS011;513;51.444;7.196;2022-12-08T13:58:18;26.07;;;16.53;;
1048;SDS011;513;51.444;7.196;2022-12-08T14:00:52;26.67;;;16.10;;
1048;SDS011;513;51.444;7.196;2022-12-08T14:03:26;29.23;;;17.20;;
1048;SDS011;513;51.444;7.196;2022-12-08T14:05:53;26.40;;;16.03;;
1048;SDS011;513;51.444;7.196;2022-12-08T14:08:22;28.13;;;16.60;;
1048;SDS011;513;51.444;7.196;2022-12-08T14:10:56;28.00;;;17.37;;
1048;SDS011;513;51.444;7.196;2022-12-08T14:13:26;27.47;;;16.57;;
1048;SDS011;513;51.444;7.196;2022-12-08T14:15:55;28.20;;;17.93;;
1048;SDS011;513;51.444;7.196;2022-12-08T14:18:23;28.63;;;18.13;;
1048;SDS011;513;51.444;7.196;2022-12-08T14:21:03;30.47;;;18.00;;
1048;SDS011;513;51.444;7.196;2022-12-08T14:23:33;28.87;;;17.37;;
1048;SDS011;513;51.444;7.196;2022-12-08T14:26:01;29.33;;;18.00;;
1048;SDS011;513;51.444;7.196;2022-12-08T14:28:29;28.10;;;18.33;;
1048;SDS011;513;51.444;7.196;2022-12-08T14:30:56;28.90;;;18.27;;
1048;SDS011;513;51.444;7.196;2022-12-08T14:33:23;35.70;;;21.97;;
1048;SDS011;513;51.444;7.196;2022-12-08T14:35:53;31.70;;;18.43;;
1048;SDS011;513;51.444;7.196;2022-12-08T14:38:23;28.57;;;17.97;;
1048;SDS011;513;51.444;7.196;2022-12-08T14:40:58;29.90;;;17.20;;
1048;SDS011;513;51.444;7.196;2022-12-08T14:43:27;27.83;;;17.70;;
1048;SDS011;513;51.444;7.196;2022-12-08T14:45:56;29.13;;;18.33;;
1048;SDS011;513;51.444;7.196;2022-12-08T14:48:26;26.37;;;16.40;;
1048;SDS011;513;51.444;7.196;2022-12-08T14:51:06;26.67;;;17.20;;
1048;SDS011;513;51.444;7.196;2022-12-08T14:53:42;27.97;;;16.57;;
1048;SDS011;513;51.444;7.196;2022-12-08T14:56:14;35.37;;;20.30;;
1048;SDS011;513;51.444;7.196;2022-12-08T14:58:45;28.43;;;17.40;;
1048;SDS011;513;51.444;7.196;2022-12-08T15:01:13;24.17;;;15.90;;
1048;SDS011;513;51.444;7.196;2022-12-08T15:03:42;25.30;;;15.77;;
1048;SDS011;513;51.444;7.196;2022-12-08T15:06:09;23.90;;;14.30;;
1048;SDS011;513;51.444;7.196;2022-12-08T15:08:50;26.43;;;15.67;;
1048;SDS011;513;51.444;7.196;2022-12-08T15:11:30;27.00;;;16.17;;
1048;SDS011;513;51.444;7.196;2022-12-08T15:13:58;22.70;;;14.67;;
1048;SDS011;513;51.444;7.196;2022-12-08T15:16:26;25.40;;;15.93;;
1048;SDS011;513;51.444;7.196;2022-12-08T15:19:13;23.73;;;15.23;;
1048;SDS011;513;51.444;7.196;2022-12-08T15:21:42;25.73;;;15.10;;
1048;SDS011;513;51.444;7.196;2022-12-08T15:24:12;25.93;;;15.17;;
1048;SDS011;513;51.444;7.196;2022-12-08T15:26:41;28.23;;;16.27;;
1048;SDS011;513;51.444;7.196;2022-12-08T15:29:11;27.07;;;16.63;;
1048;SDS011;513;51.444;7.196;2022-12-08T15:31:41;24.33;;;16.00;;
1048;SDS011;513;51.444;7.196;2022-12-08T15:34:08;26.30;;;16.63;;